Flight Track Log - Related Links

Times and Time Zones

All times are in EDT time to prevent confusion due to time zone crossing. See the 9Y-SXM flight status page for this flight to view local times or setup timezone preferences in your user account.

Time Position Orientation Groundspeed Altitude Reporting Facility
EDT Latitude Longitude Course Direction KTS MPH feet Rate Location/Type
Fri 04:26:00 PM 12.4151 -59.9874 216° Southwest  Level Estimated
Fri 04:27:00 PM 12.3326 -60.0491 216° Southwest  Level Estimated
Fri 04:28:00 PM 12.2500 -60.1108 216° Southwest  Level Estimated
Fri 04:29:00 PM 12.1675 -60.1724 216° Southwest  Level Estimated
Fri 04:30:00 PM 12.0850 -60.2340 216° Southwest  Level Estimated
Fri 04:31:00 PM 12.0024 -60.2955 216° Southwest  Level Estimated
Fri 04:32:00 PM 11.9198 -60.3570 216° Southwest  Level Estimated
Fri 04:33:00 PM 11.8372 -60.4184 216° Southwest  Level Estimated
Fri 04:34:00 PM 11.7546 -60.4799 216° Southwest  Level Estimated
Fri 04:35:00 PM 11.6720 -60.5413 216° Southwest  Level Estimated
Fri 04:36:00 PM 11.5894 -60.6026 216° Southwest  Level Estimated
Fri 04:37:00 PM 11.5068 -60.6639 216° Southwest  Level Estimated
Fri 04:38:00 PM 11.4241 -60.7252 216° Southwest  Level Estimated
Fri 04:39:00 PM 11.3414 -60.7865 216° Southwest  Level Estimated
Fri 04:40:00 PM 11.2588 -60.8477 216° Southwest  Level Estimated
Fri 04:41:00 PM 11.1761 -60.9088 216° Southwest  Level Estimated
Fri 04:42:00 PM 11.0934 -60.9700 216° Southwest  Level Estimated
Fri 04:43:00 PM 11.0107 -61.0311 216° Southwest  Level Estimated
Fri 04:44:00 PM 10.9279 -61.0922 216° Southwest  Level Estimated
Fri 04:45:00 PM 10.8452 -61.1532 216° Southwest  Level Estimated
Fri 04:46:00 PM 10.7625 -61.2142 216° Southwest  Level Estimated
Fri 04:47:00 PM 10.6797 -61.2752 216° Southwest  Level Estimated
Fri 04:48:00 PM 10.5969 -61.3361 216° Southwest  Level Estimated
Fri 04:49:00 PM 10.5954 -61.3372 216° Southwest  Level Estimated
Fri 04:50:00 PM 10.5954 -61.3372 243° Southwest  Level Estimated
Fri 04:51:00 PM 10.5954 -61.3372 243° Southwest  Level Estimated
Fri 04:52:00 PM 10.5954 -61.3372 243° Southwest  Level Estimated
Fri 04:53:00 PM 10.5954 -61.3372 243° Southwest  Level Estimated
Fri 04:54:00 PM 10.5954 -61.3372 243° Southwest  Level Estimated
Fri 04:55:00 PM 10.5954 -61.3372 243° Southwest  Level Estimated
Fri 04:56:00 PM 10.5954 -61.3372 243° Southwest  Level Estimated
Fri 04:57:00 PM 10.5954 -61.3372 243° Southwest  Level Estimated
Fri 04:58:00 PM 10.5954 -61.3372 243° Southwest  Level Estimated
Fri 04:59:00 PM 10.5954 -61.3372 243° Southwest  Level Estimated
Fri 05:00:00 PM 10.5954 -61.3372 243° Southwest  Level Estimated
Fri 05:01:00 PM 10.5954 -61.3372 243° Southwest  Level Estimated
Fri 05:02:00 PM 10.5954 -61.3372 243° Southwest  Level Estimated
Fri 05:03:00 PM 10.5954 -61.3372 243° Southwest  Level Estimated
Fri 05:04:00 PM 10.5954 -61.3372 243° Southwest  Level Estimated

Login

Don't have an account? Register now (free) for customized features, flight alerts, and more!